Time;durP1;ratioP1;P1;durP2;ratioP2;P2;SDS_P1;SDS_P2;PMS_P1;PMS_P2;Temp;Humidity;BMP_temperature;BMP_pressure;BME280_temperature;BME280_humidity;BME280_pressure;Samples;Min_cycle;Max_cycle;Signal;HPM_P1;HPM_P2
2024/04/11 00:03:47;;;;;;;0.00;0.00;;;;;;;;;;33976565;26;20253;-59
2024/04/11 00:18:55;;;;;;;0.00;0.00;;;;;;;;;;33949728;26;20258;-59
2024/04/11 00:49:22;;;;;;;0.00;0.00;;;;;;;;;;33972974;26;20263;-59
2024/04/11 01:04:54;;;;;;;0.00;0.00;;;;;;;;;;33991705;25;20288;-59
2024/04/11 01:20:00;;;;;;;0.00;0.00;;;;;;;;;;34008775;26;20254;-59
2024/04/11 01:35:08;;;;;;;0.00;0.00;;;;;;;;;;34000344;26;20250;-59
2024/04/11 01:50:16;;;;;;;0.00;0.00;;;;;;;;;;34006048;26;20686;-58
2024/04/11 02:05:49;;;;;;;0.00;0.00;;;;;;;;;;34004023;26;20308;-58
2024/04/11 02:20:55;;;;;;;0.00;0.00;;;;;;;;;;33761843;26;20271;-58
2024/04/11 02:36:03;;;;;;;0.00;0.00;;;;;;;;;;33768057;26;20347;-59
2024/04/11 02:51:11;;;;;;;0.00;0.00;;;;;;;;;;33767798;26;20266;-58
2024/04/11 03:06:43;;;;;;;0.00;0.00;;;;;;;;;;33873564;26;20247;-59
2024/04/11 03:21:50;;;;;;;0.00;0.00;;;;;;;;;;33984331;26;20605;-58
2024/04/11 03:36:58;;;;;;;0.00;0.00;;;;;;;;;;33989409;26;20250;-58
2024/04/11 03:52:05;;;;;;;0.00;0.00;;;;;;;;;;33983919;26;20350;-59
2024/04/11 04:07:37;;;;;;;0.00;0.00;;;;;;;;;;33979274;26;20342;-58
2024/04/11 04:22:44;;;;;;;0.00;0.00;;;;;;;;;;33981391;26;20808;-57
2024/04/11 04:37:50;;;;;;;0.00;0.00;;;;;;;;;;33961819;26;20261;-57
2024/04/11 04:53:01;;;;;;;0.10;0.10;;;;;;;;;;33998535;26;20598;-57
2024/04/11 05:08:33;;;;;;;0.00;0.00;;;;;;;;;;34003659;26;20831;-60
2024/04/11 05:23:42;;;;;;;0.00;0.00;;;;;;;;;;34001866;26;20760;-57
2024/04/11 05:38:48;;;;;;;0.00;0.00;;;;;;;;;;34000229;26;20250;-58
2024/04/11 05:53:55;;;;;;;0.00;0.00;;;;;;;;;;33998891;26;20254;-57
2024/04/11 06:09:27;;;;;;;0.00;0.00;;;;;;;;;;33987439;26;20862;-58
2024/04/11 06:24:35;;;;;;;0.00;0.00;;;;;;;;;;33994451;26;20703;-57
2024/04/11 06:39:41;;;;;;;0.00;0.00;;;;;;;;;;33996093;26;20293;-57
2024/04/11 06:54:48;;;;;;;0.00;0.00;;;;;;;;;;33983207;25;20607;-58
2024/04/11 07:10:24;;;;;;;0.00;0.00;;;;;;;;;;33986352;26;20247;-57
2024/04/11 07:25:32;;;;;;;0.00;0.00;;;;;;;;;;33985153;26;20714;-57
2024/04/11 07:40:45;;;;;;;0.00;0.00;;;;;;;;;;33984237;26;20284;-57
2024/04/11 07:55:53;;;;;;;0.00;0.00;;;;;;;;;;33989133;26;20258;-57
2024/04/11 08:11:29;;;;;;;0.00;0.00;;;;;;;;;;33985818;25;20283;-57
2024/04/11 08:26:37;;;;;;;0.00;0.00;;;;;;;;;;33983969;26;20262;-58
2024/04/11 08:41:45;;;;;;;0.00;0.00;;;;;;;;;;33983372;26;20304;-57
2024/04/11 08:56:52;;;;;;;0.00;0.00;;;;;;;;;;33973792;26;20253;-58
2024/04/11 09:12:27;;;;;;;0.00;0.00;;;;;;;;;;33978648;26;20299;-58
2024/04/11 09:27:42;;;;;;;0.00;0.00;;;;;;;;;;33991024;26;20741;-58
2024/04/11 09:42:50;;;;;;;0.00;0.00;;;;;;;;;;33997706;26;20265;-58
2024/04/11 09:57:58;;;;;;;0.00;0.00;;;;;;;;;;34002783;26;20630;-58
2024/04/11 10:13:30;;;;;;;0.00;0.00;;;;;;;;;;34191898;25;20290;-58
2024/04/11 10:28:41;;;;;;;0.00;0.00;;;;;;;;;;34230532;25;20252;-59
2024/04/11 10:43:49;;;;;;;0.00;0.00;;;;;;;;;;34175335;25;20250;-59
2024/04/11 10:58:55;;;;;;;0.00;0.00;;;;;;;;;;34165982;25;20293;-58
2024/04/11 11:14:28;;;;;;;0.00;0.00;;;;;;;;;;34176632;25;20617;-58
2024/04/11 11:29:36;;;;;;;0.00;0.00;;;;;;;;;;34065086;26;20296;-59
2024/04/11 12:00:19;;;;;;;0.00;0.00;;;;;;;;;;34045705;25;20657;-59
2024/04/11 12:15:51;;;;;;;0.00;0.00;;;;;;;;;;34092946;25;20262;-59
2024/04/11 12:31:00;;;;;;;0.00;0.00;;;;;;;;;;34068360;26;20258;-59
2024/04/11 12:46:09;;;;;;;0.00;0.00;;;;;;;;;;34105883;25;20722;-59
2024/04/11 13:01:18;;;;;;;0.00;0.00;;;;;;;;;;34100190;25;20292;-59
2024/04/11 13:17:00;;;;;;;0.00;0.00;;;;;;;;;;34152454;25;20248;-60
2024/04/11 13:32:11;;;;;;;0.00;0.00;;;;;;;;;;34110649;25;20257;-59
2024/04/11 13:47:22;;;;;;;0.00;0.00;;;;;;;;;;34121527;25;20253;-60
2024/04/11 14:02:46;;;;;;;0.00;0.00;;;;;;;;;;34118474;25;20354;-59
2024/04/11 14:18:18;;;;;;;0.00;0.00;;;;;;;;;;34115057;25;20250;-59
2024/04/11 14:34:19;;;;;;;0.00;0.00;;;;;;;;;;34088344;25;20924;-59
2024/04/11 14:49:10;;;;;;;0.00;0.00;;;;;;;;;;34082977;26;20253;-61
2024/04/11 15:04:20;;;;;;;0.00;0.00;;;;;;;;;;34074189;25;20252;-60
2024/04/11 15:19:56;;;;;;;0.00;0.00;;;;;;;;;;34098727;26;20355;-60
2024/04/11 15:35:10;;;;;;;0.00;0.00;;;;;;;;;;34090943;25;20323;-59
2024/04/11 15:50:17;;;;;;;0.00;0.00;;;;;;;;;;34097597;25;20764;-59
2024/04/11 16:05:27;;;;;;;0.00;0.00;;;;;;;;;;33975798;26;20265;-59
2024/04/11 16:21:02;;;;;;;0.00;0.00;;;;;;;;;;33802159;26;20264;-60
2024/04/11 16:36:11;;;;;;;0.00;0.00;;;;;;;;;;33819793;26;20355;-60
2024/04/11 16:51:18;;;;;;;0.00;0.00;;;;;;;;;;33833188;26;20298;-59
2024/04/11 17:06:26;;;;;;;0.00;0.00;;;;;;;;;;33891470;26;20255;-60
2024/04/11 17:21:59;;;;;;;0.00;0.00;;;;;;;;;;33993576;26;20749;-59
2024/04/11 17:37:14;;;;;;;0.00;0.00;;;;;;;;;;34020416;26;20252;-60
2024/04/11 17:52:27;;;;;;;0.00;0.00;;;;;;;;;;33956599;26;20265;-59
2024/04/11 18:07:33;;;;;;;0.00;0.00;;;;;;;;;;33996081;25;20246;-59
2024/04/11 18:23:05;;;;;;;0.00;0.00;;;;;;;;;;34001569;26;20648;-59
2024/04/11 18:38:13;;;;;;;0.00;0.00;;;;;;;;;;33879356;26;20304;-59
2024/04/11 18:53:24;;;;;;;0.00;0.00;;;;;;;;;;33999202;26;20757;-59
2024/04/11 19:08:36;;;;;;;0.00;0.00;;;;;;;;;;34047335;26;20886;-59
2024/04/11 19:24:11;;;;;;;0.00;0.00;;;;;;;;;;34073786;26;20257;-59
2024/04/11 19:39:19;;;;;;;0.00;0.00;;;;;;;;;;34080097;26;20824;-59
2024/04/11 19:54:25;;;;;;;0.00;0.00;;;;;;;;;;34084394;26;20284;-59
2024/04/11 20:09:32;;;;;;;0.00;0.00;;;;;;;;;;34075650;26;21144;-59
2024/04/11 20:25:07;;;;;;;0.00;0.00;;;;;;;;;;34080365;26;20251;-59
2024/04/11 20:40:19;;;;;;;0.00;0.00;;;;;;;;;;34039230;26;20370;-59
2024/04/11 21:41:58;;;;;;;0.00;0.00;;;;;;;;;;34016441;26;20297;-59
2024/04/11 21:57:05;;;;;;;0.00;0.00;;;;;;;;;;34006610;26;20288;-59
2024/04/11 22:12:11;;;;;;;0.00;0.00;;;;;;;;;;33998046;26;20285;-59
2024/04/11 22:27:47;;;;;;;0.00;0.00;;;;;;;;;;33996903;26;20783;-60
2024/04/11 22:42:55;;;;;;;0.00;0.00;;;;;;;;;;33997529;26;20255;-59
2024/04/11 22:58:05;;;;;;;0.00;0.00;;;;;;;;;;33997894;26;20261;-59
2024/04/11 23:13:14;;;;;;;0.00;0.00;;;;;;;;;;34001637;26;20966;-60
2024/04/11 23:28:47;;;;;;;0.00;0.00;;;;;;;;;;33988434;26;20364;-59
2024/04/11 23:43:54;;;;;;;0.00;0.00;;;;;;;;;;33886410;26;20307;-60
2024/04/11 23:59:11;;;;;;;0.00;0.00;;;;;;;;;;33987369;26;20288;-59
